sensor_id;sensor_type;location;lat;lon;timestamp;temperature;humidity
40589;DHT22;26297;49.450;6.640;2022-07-22T00:02:07;21.40;99.90
40589;DHT22;26297;49.450;6.640;2022-07-22T00:05:10;21.40;99.90
40589;DHT22;26297;49.450;6.640;2022-07-22T00:08:13;21.30;99.90
40589;DHT22;26297;49.450;6.640;2022-07-22T00:11:17;21.30;99.90
40589;DHT22;26297;49.450;6.640;2022-07-22T00:14:20;21.20;99.90
40589;DHT22;26297;49.450;6.640;2022-07-22T00:17:23;21.20;99.90
40589;DHT22;26297;49.450;6.640;2022-07-22T00:20:26;21.20;99.90
40589;DHT22;26297;49.450;6.640;2022-07-22T00:23:29;21.10;99.90
40589;DHT22;26297;49.450;6.640;2022-07-22T00:26:33;21.10;99.90
40589;DHT22;26297;49.450;6.640;2022-07-22T00:29:36;21.00;99.90
40589;DHT22;26297;49.450;6.640;2022-07-22T00:32:39;21.00;99.90
40589;DHT22;26297;49.450;6.640;2022-07-22T00:35:42;21.00;99.90
40589;DHT22;26297;49.450;6.640;2022-07-22T00:38:45;21.00;99.90
40589;DHT22;26297;49.450;6.640;2022-07-22T00:41:49;20.90;99.90
40589;DHT22;26297;49.450;6.640;2022-07-22T00:44:52;20.90;99.90
40589;DHT22;26297;49.450;6.640;2022-07-22T00:47:55;20.80;99.90
40589;DHT22;26297;49.450;6.640;2022-07-22T00:50:58;20.80;99.90
40589;DHT22;26297;49.450;6.640;2022-07-22T00:54:02;20.80;99.90
40589;DHT22;26297;49.450;6.640;2022-07-22T00:57:06;20.80;99.90
40589;DHT22;26297;49.450;6.640;2022-07-22T01:00:16;20.70;99.90
40589;DHT22;26297;49.450;6.640;2022-07-22T01:03:20;20.70;99.90
40589;DHT22;26297;49.450;6.640;2022-07-22T01:06:22;20.70;99.90
40589;DHT22;26297;49.450;6.640;2022-07-22T01:09:25;20.70;99.90
40589;DHT22;26297;49.450;6.640;2022-07-22T01:12:29;20.70;99.90
40589;DHT22;26297;49.450;6.640;2022-07-22T01:15:32;20.70;99.90
40589;DHT22;26297;49.450;6.640;2022-07-22T01:18:38;20.70;99.90
40589;DHT22;26297;49.450;6.640;2022-07-22T01:21:41;20.70;99.90
40589;DHT22;26297;49.450;6.640;2022-07-22T01:24:44;20.60;99.90
40589;DHT22;26297;49.450;6.640;2022-07-22T01:27:47;20.60;99.90
40589;DHT22;26297;49.450;6.640;2022-07-22T01:30:53;20.60;99.90
40589;DHT22;26297;49.450;6.640;2022-07-22T01:33:57;20.50;99.90
40589;DHT22;26297;49.450;6.640;2022-07-22T01:37:00;20.60;99.90
40589;DHT22;26297;49.450;6.640;2022-07-22T01:40:03;20.50;99.90
40589;DHT22;26297;49.450;6.640;2022-07-22T01:43:07;20.50;99.90
40589;DHT22;26297;49.450;6.640;2022-07-22T01:46:10;20.50;99.90
40589;DHT22;26297;49.450;6.640;2022-07-22T01:49:13;20.50;99.90
40589;DHT22;26297;49.450;6.640;2022-07-22T01:52:17;20.40;99.90
40589;DHT22;26297;49.450;6.640;2022-07-22T01:55:20;20.40;99.90
40589;DHT22;26297;49.450;6.640;2022-07-22T01:58:23;20.40;99.90
40589;DHT22;26297;49.450;6.640;2022-07-22T02:01:26;20.30;99.90
40589;DHT22;26297;49.450;6.640;2022-07-22T02:04:29;20.30;99.90
40589;DHT22;26297;49.450;6.640;2022-07-22T02:07:33;20.30;99.90
40589;DHT22;26297;49.450;6.640;2022-07-22T02:10:36;20.30;99.90
40589;DHT22;26297;49.450;6.640;2022-07-22T02:13:40;20.20;99.90
40589;DHT22;26297;49.450;6.640;2022-07-22T02:16:43;20.30;99.90
40589;DHT22;26297;49.450;6.640;2022-07-22T02:19:46;20.20;99.90
40589;DHT22;26297;49.450;6.640;2022-07-22T02:22:49;20.20;99.90
40589;DHT22;26297;49.450;6.640;2022-07-22T02:25:52;20.20;99.90
40589;DHT22;26297;49.450;6.640;2022-07-22T02:28:56;20.20;99.90
40589;DHT22;26297;49.450;6.640;2022-07-22T02:31:59;20.20;99.90
40589;DHT22;26297;49.450;6.640;2022-07-22T02:35:03;20.20;99.90
40589;DHT22;26297;49.450;6.640;2022-07-22T02:38:07;20.10;99.90
40589;DHT22;26297;49.450;6.640;2022-07-22T02:41:10;20.20;99.90
40589;DHT22;26297;49.450;6.640;2022-07-22T02:44:13;20.10;99.90
40589;DHT22;26297;49.450;6.640;2022-07-22T02:47:16;20.10;99.90
40589;DHT22;26297;49.450;6.640;2022-07-22T02:50:20;20.10;99.90
40589;DHT22;26297;49.450;6.640;2022-07-22T02:53:23;20.00;99.90
40589;DHT22;26297;49.450;6.640;2022-07-22T02:56:26;20.00;99.90
40589;DHT22;26297;49.450;6.640;2022-07-22T02:59:29;20.00;99.90
40589;DHT22;26297;49.450;6.640;2022-07-22T03:02:32;20.00;99.90
40589;DHT22;26297;49.450;6.640;2022-07-22T03:05:35;20.00;99.90
40589;DHT22;26297;49.450;6.640;2022-07-22T03:08:38;20.00;99.90
40589;DHT22;26297;49.450;6.640;2022-07-22T03:11:42;19.90;99.90
40589;DHT22;26297;49.450;6.640;2022-07-22T03:14:45;19.90;99.90
40589;DHT22;26297;49.450;6.640;2022-07-22T03:17:48;19.90;99.90
40589;DHT22;26297;49.450;6.640;2022-07-22T03:20:52;19.90;99.90
40589;DHT22;26297;49.450;6.640;2022-07-22T03:23:55;19.80;99.90
40589;DHT22;26297;49.450;6.640;2022-07-22T03:26:58;19.90;99.90
40589;DHT22;26297;49.450;6.640;2022-07-22T03:30:01;19.90;99.90
40589;DHT22;26297;49.450;6.640;2022-07-22T03:33:04;19.90;99.90
40589;DHT22;26297;49.450;6.640;2022-07-22T03:36:08;20.00;99.90
40589;DHT22;26297;49.450;6.640;2022-07-22T03:39:11;20.10;99.90
40589;DHT22;26297;49.450;6.640;2022-07-22T03:42:14;20.10;99.90
40589;DHT22;26297;49.450;6.640;2022-07-22T03:45:17;20.00;99.90
40589;DHT22;26297;49.450;6.640;2022-07-22T03:48:21;19.90;99.90
40589;DHT22;26297;49.450;6.640;2022-07-22T03:51:23;19.90;99.90
40589;DHT22;26297;49.450;6.640;2022-07-22T03:54:26;19.90;99.90
40589;DHT22;26297;49.450;6.640;2022-07-22T03:57:30;19.90;99.90
40589;DHT22;26297;49.450;6.640;2022-07-22T04:00:33;19.90;99.90
40589;DHT22;26297;49.450;6.640;2022-07-22T04:03:36;19.80;99.90
40589;DHT22;26297;49.450;6.640;2022-07-22T04:06:39;19.70;99.90
40589;DHT22;26297;49.450;6.640;2022-07-22T04:09:42;19.70;99.90
40589;DHT22;26297;49.450;6.640;2022-07-22T04:12:45;19.70;99.90
40589;DHT22;26297;49.450;6.640;2022-07-22T04:15:49;19.70;99.90
40589;DHT22;26297;49.450;6.640;2022-07-22T04:18:52;19.70;99.90
40589;DHT22;26297;49.450;6.640;2022-07-22T04:21:55;19.60;99.90
40589;DHT22;26297;49.450;6.640;2022-07-22T04:24:58;19.60;99.90
40589;DHT22;26297;49.450;6.640;2022-07-22T04:28:01;19.60;99.90
40589;DHT22;26297;49.450;6.640;2022-07-22T04:31:04;19.60;99.90
40589;DHT22;26297;49.450;6.640;2022-07-22T04:34:07;19.60;99.90
40589;DHT22;26297;49.450;6.640;2022-07-22T04:37:10;19.60;99.90
40589;DHT22;26297;49.450;6.640;2022-07-22T04:40:14;19.60;99.90
40589;DHT22;26297;49.450;6.640;2022-07-22T04:43:17;19.50;99.90
40589;DHT22;26297;49.450;6.640;2022-07-22T04:46:20;19.60;99.90
40589;DHT22;26297;49.450;6.640;2022-07-22T04:49:23;19.60;99.90
40589;DHT22;26297;49.450;6.640;2022-07-22T04:52:29;19.60;99.90
40589;DHT22;26297;49.450;6.640;2022-07-22T04:55:32;19.50;99.90
40589;DHT22;26297;49.450;6.640;2022-07-22T04:58:34;19.50;99.90
40589;DHT22;26297;49.450;6.640;2022-07-22T05:01:38;19.60;99.90
40589;DHT22;26297;49.450;6.640;2022-07-22T05:04:41;19.60;99.90
40589;DHT22;26297;49.450;6.640;2022-07-22T05:07:44;19.60;99.90
40589;DHT22;26297;49.450;6.640;2022-07-22T05:10:46;19.70;99.90
40589;DHT22;26297;49.450;6.640;2022-07-22T05:13:50;19.60;99.90
40589;DHT22;26297;49.450;6.640;2022-07-22T05:16:53;19.70;99.90
40589;DHT22;26297;49.450;6.640;2022-07-22T05:19:56;19.70;99.90
40589;DHT22;26297;49.450;6.640;2022-07-22T05:22:59;19.70;99.90
40589;DHT22;26297;49.450;6.640;2022-07-22T05:26:04;19.70;99.90
40589;DHT22;26297;49.450;6.640;2022-07-22T05:29:07;19.80;99.90
40589;DHT22;26297;49.450;6.640;2022-07-22T05:32:10;19.80;99.90
40589;DHT22;26297;49.450;6.640;2022-07-22T05:35:14;19.80;99.90
40589;DHT22;26297;49.450;6.640;2022-07-22T05:38:17;19.90;99.90
40589;DHT22;26297;49.450;6.640;2022-07-22T05:41:20;19.90;99.90
40589;DHT22;26297;49.450;6.640;2022-07-22T05:44:23;19.90;99.90
40589;DHT22;26297;49.450;6.640;2022-07-22T05:47:26;20.00;99.90
40589;DHT22;26297;49.450;6.640;2022-07-22T05:50:29;20.00;99.90
40589;DHT22;26297;49.450;6.640;2022-07-22T05:53:32;20.10;99.90
40589;DHT22;26297;49.450;6.640;2022-07-22T05:56:35;20.10;99.90
40589;DHT22;26297;49.450;6.640;2022-07-22T05:59:39;20.20;99.90
40589;DHT22;26297;49.450;6.640;2022-07-22T06:02:42;20.30;99.90
40589;DHT22;26297;49.450;6.640;2022-07-22T06:05:45;20.40;99.90
40589;DHT22;26297;49.450;6.640;2022-07-22T06:08:48;20.50;99.90
40589;DHT22;26297;49.450;6.640;2022-07-22T06:11:51;20.70;99.90
40589;DHT22;26297;49.450;6.640;2022-07-22T06:14:54;20.80;99.90
40589;DHT22;26297;49.450;6.640;2022-07-22T06:17:57;20.90;99.90
40589;DHT22;26297;49.450;6.640;2022-07-22T06:21:07;21.00;99.90
40589;DHT22;26297;49.450;6.640;2022-07-22T06:24:11;21.00;99.90
40589;DHT22;26297;49.450;6.640;2022-07-22T06:27:14;21.10;99.90
40589;DHT22;26297;49.450;6.640;2022-07-22T06:30:17;21.00;99.90
40589;DHT22;26297;49.450;6.640;2022-07-22T06:33:20;21.10;99.90
40589;DHT22;26297;49.450;6.640;2022-07-22T06:36:23;21.10;99.90
40589;DHT22;26297;49.450;6.640;2022-07-22T06:39:27;21.10;99.90
40589;DHT22;26297;49.450;6.640;2022-07-22T06:42:29;21.10;99.90
40589;DHT22;26297;49.450;6.640;2022-07-22T06:45:32;21.20;99.90
40589;DHT22;26297;49.450;6.640;2022-07-22T06:48:35;21.20;99.90
40589;DHT22;26297;49.450;6.640;2022-07-22T06:51:38;21.20;99.90
40589;DHT22;26297;49.450;6.640;2022-07-22T06:54:41;21.20;99.90
40589;DHT22;26297;49.450;6.640;2022-07-22T06:57:44;21.30;99.90
40589;DHT22;26297;49.450;6.640;2022-07-22T07:00:48;21.30;99.90
40589;DHT22;26297;49.450;6.640;2022-07-22T07:03:50;21.30;99.90
40589;DHT22;26297;49.450;6.640;2022-07-22T07:06:53;21.30;99.90
40589;DHT22;26297;49.450;6.640;2022-07-22T07:09:56;21.30;99.90
40589;DHT22;26297;49.450;6.640;2022-07-22T07:13:00;21.30;99.90
40589;DHT22;26297;49.450;6.640;2022-07-22T07:16:03;21.40;99.90
40589;DHT22;26297;49.450;6.640;2022-07-22T07:19:06;21.40;99.90
40589;DHT22;26297;49.450;6.640;2022-07-22T07:22:09;21.40;99.90
40589;DHT22;26297;49.450;6.640;2022-07-22T07:25:13;21.40;99.90
40589;DHT22;26297;49.450;6.640;2022-07-22T07:28:17;21.40;99.90
40589;DHT22;26297;49.450;6.640;2022-07-22T07:31:20;21.50;99.90
40589;DHT22;26297;49.450;6.640;2022-07-22T07:34:24;21.50;99.90
40589;DHT22;26297;49.450;6.640;2022-07-22T07:37:27;21.50;99.90
40589;DHT22;26297;49.450;6.640;2022-07-22T07:40:30;21.50;99.90
40589;DHT22;26297;49.450;6.640;2022-07-22T07:43:34;21.50;99.90
40589;DHT22;26297;49.450;6.640;2022-07-22T07:46:38;21.50;99.90
40589;DHT22;26297;49.450;6.640;2022-07-22T07:49:42;21.60;99.90
40589;DHT22;26297;49.450;6.640;2022-07-22T07:52:45;21.60;99.90
40589;DHT22;26297;49.450;6.640;2022-07-22T07:55:54;21.60;99.90
40589;DHT22;26297;49.450;6.640;2022-07-22T07:58:57;21.70;99.90
40589;DHT22;26297;49.450;6.640;2022-07-22T08:02:00;21.70;99.90
40589;DHT22;26297;49.450;6.640;2022-07-22T08:05:04;21.70;99.90
40589;DHT22;26297;49.450;6.640;2022-07-22T08:08:08;21.70;99.90
40589;DHT22;26297;49.450;6.640;2022-07-22T08:11:11;21.80;99.90
40589;DHT22;26297;49.450;6.640;2022-07-22T08:14:15;21.80;99.90
40589;DHT22;26297;49.450;6.640;2022-07-22T08:17:19;21.80;99.90
40589;DHT22;26297;49.450;6.640;2022-07-22T08:20:24;21.90;99.90
40589;DHT22;26297;49.450;6.640;2022-07-22T08:23:27;21.90;99.90
40589;DHT22;26297;49.450;6.640;2022-07-22T08:26:30;21.90;99.90
40589;DHT22;26297;49.450;6.640;2022-07-22T08:29:34;21.90;99.90
40589;DHT22;26297;49.450;6.640;2022-07-22T08:32:37;21.90;99.90
40589;DHT22;26297;49.450;6.640;2022-07-22T08:35:40;21.90;99.90
40589;DHT22;26297;49.450;6.640;2022-07-22T08:38:44;21.90;99.90
40589;DHT22;26297;49.450;6.640;2022-07-22T08:41:54;22.00;99.90
40589;DHT22;26297;49.450;6.640;2022-07-22T08:45:18;22.00;99.90
40589;DHT22;26297;49.450;6.640;2022-07-22T08:48:21;22.00;99.90
40589;DHT22;26297;49.450;6.640;2022-07-22T08:51:25;22.00;99.90
40589;DHT22;26297;49.450;6.640;2022-07-22T08:54:28;22.00;99.90
40589;DHT22;26297;49.450;6.640;2022-07-22T08:57:31;22.00;99.90
40589;DHT22;26297;49.450;6.640;2022-07-22T09:00:34;22.10;99.90
40589;DHT22;26297;49.450;6.640;2022-07-22T09:03:48;22.00;99.90
40589;DHT22;26297;49.450;6.640;2022-07-22T09:06:52;22.00;99.90
40589;DHT22;26297;49.450;6.640;2022-07-22T09:09:57;22.00;99.90
40589;DHT22;26297;49.450;6.640;2022-07-22T09:13:04;22.10;99.90
40589;DHT22;26297;49.450;6.640;2022-07-22T09:16:07;22.10;99.90
40589;DHT22;26297;49.450;6.640;2022-07-22T09:19:12;22.20;99.90
40589;DHT22;26297;49.450;6.640;2022-07-22T09:22:30;22.20;99.90
40589;DHT22;26297;49.450;6.640;2022-07-22T09:25:35;22.20;99.90
40589;DHT22;26297;49.450;6.640;2022-07-22T09:28:53;22.20;99.90
40589;DHT22;26297;49.450;6.640;2022-07-22T09:31:57;22.20;99.90
40589;DHT22;26297;49.450;6.640;2022-07-22T09:35:05;22.20;99.90
40589;DHT22;26297;49.450;6.640;2022-07-22T09:38:11;22.20;99.90
40589;DHT22;26297;49.450;6.640;2022-07-22T09:41:14;22.20;99.90
40589;DHT22;26297;49.450;6.640;2022-07-22T09:44:22;22.30;99.90
40589;DHT22;26297;49.450;6.640;2022-07-22T09:47:27;22.30;99.90
40589;DHT22;26297;49.450;6.640;2022-07-22T09:50:39;22.40;99.90
40589;DHT22;26297;49.450;6.640;2022-07-22T09:53:42;22.40;99.90
40589;DHT22;26297;49.450;6.640;2022-07-22T09:56:49;22.40;99.90
40589;DHT22;26297;49.450;6.640;2022-07-22T09:59:53;22.40;99.90
40589;DHT22;26297;49.450;6.640;2022-07-22T10:02:58;22.30;99.90
40589;DHT22;26297;49.450;6.640;2022-07-22T10:06:05;22.30;99.90
40589;DHT22;26297;49.450;6.640;2022-07-22T10:09:14;22.30;99.90
40589;DHT22;26297;49.450;6.640;2022-07-22T10:12:28;22.30;99.90
40589;DHT22;26297;49.450;6.640;2022-07-22T10:15:35;22.50;99.90
40589;DHT22;26297;49.450;6.640;2022-07-22T10:18:39;22.60;99.90
40589;DHT22;26297;49.450;6.640;2022-07-22T10:21:50;22.50;99.90
40589;DHT22;26297;49.450;6.640;2022-07-22T10:25:03;22.60;99.90
40589;DHT22;26297;49.450;6.640;2022-07-22T10:28:26;22.50;99.90
40589;DHT22;26297;49.450;6.640;2022-07-22T10:31:30;22.60;99.90
40589;DHT22;26297;49.450;6.640;2022-07-22T10:34:33;22.60;99.90
40589;DHT22;26297;49.450;6.640;2022-07-22T10:37:37;22.70;99.90
40589;DHT22;26297;49.450;6.640;2022-07-22T10:40:55;22.60;99.90
40589;DHT22;26297;49.450;6.640;2022-07-22T10:43:58;22.50;99.90
40589;DHT22;26297;49.450;6.640;2022-07-22T10:47:01;22.60;99.90
40589;DHT22;26297;49.450;6.640;2022-07-22T10:53:56;22.60;99.90
40589;DHT22;26297;49.450;6.640;2022-07-22T10:57:00;22.70;99.90
40589;DHT22;26297;49.450;6.640;2022-07-22T11:00:04;22.70;99.90
40589;DHT22;26297;49.450;6.640;2022-07-22T11:03:09;22.70;99.90
40589;DHT22;26297;49.450;6.640;2022-07-22T11:09:34;22.80;99.90
40589;DHT22;26297;49.450;6.640;2022-07-22T11:12:38;22.80;99.90
40589;DHT22;26297;49.450;6.640;2022-07-22T11:15:42;22.80;99.90
40589;DHT22;26297;49.450;6.640;2022-07-22T11:18:47;22.90;99.90
40589;DHT22;26297;49.450;6.640;2022-07-22T11:21:57;22.90;99.90
40589;DHT22;26297;49.450;6.640;2022-07-22T11:25:05;22.90;99.90
40589;DHT22;26297;49.450;6.640;2022-07-22T11:28:09;22.90;99.90
40589;DHT22;26297;49.450;6.640;2022-07-22T11:31:17;22.90;99.90
40589;DHT22;26297;49.450;6.640;2022-07-22T11:34:21;22.80;99.90
40589;DHT22;26297;49.450;6.640;2022-07-22T11:37:27;22.70;99.90
40589;DHT22;26297;49.450;6.640;2022-07-22T11:40:34;22.70;99.90
40589;DHT22;26297;49.450;6.640;2022-07-22T11:43:45;22.70;99.90
40589;DHT22;26297;49.450;6.640;2022-07-22T11:46:50;22.70;99.90
40589;DHT22;26297;49.450;6.640;2022-07-22T11:49:53;22.60;99.90
40589;DHT22;26297;49.450;6.640;2022-07-22T11:52:57;22.50;99.90
40589;DHT22;26297;49.450;6.640;2022-07-22T11:56:01;22.50;99.90
40589;DHT22;26297;49.450;6.640;2022-07-22T11:59:07;22.50;99.90
40589;DHT22;26297;49.450;6.640;2022-07-22T12:02:12;22.40;99.90
40589;DHT22;26297;49.450;6.640;2022-07-22T12:05:16;22.50;99.90
40589;DHT22;26297;49.450;6.640;2022-07-22T12:09:15;22.50;99.90
40589;DHT22;26297;49.450;6.640;2022-07-22T12:12:19;22.50;99.90
40589;DHT22;26297;49.450;6.640;2022-07-22T12:15:22;22.50;99.90
40589;DHT22;26297;49.450;6.640;2022-07-22T12:18:27;22.50;99.90
40589;DHT22;26297;49.450;6.640;2022-07-22T12:21:36;22.50;99.90
40589;DHT22;26297;49.450;6.640;2022-07-22T12:24:45;22.50;99.90
40589;DHT22;26297;49.450;6.640;2022-07-22T12:28:00;22.60;99.90
40589;DHT22;26297;49.450;6.640;2022-07-22T12:31:04;22.60;99.90
40589;DHT22;26297;49.450;6.640;2022-07-22T12:34:07;22.70;99.90
40589;DHT22;26297;49.450;6.640;2022-07-22T12:37:22;22.80;99.90
40589;DHT22;26297;49.450;6.640;2022-07-22T12:40:36;22.80;99.90
40589;DHT22;26297;49.450;6.640;2022-07-22T12:43:50;22.80;99.90
40589;DHT22;26297;49.450;6.640;2022-07-22T12:46:55;22.80;99.90
40589;DHT22;26297;49.450;6.640;2022-07-22T12:50:24;22.80;99.90
40589;DHT22;26297;49.450;6.640;2022-07-22T12:53:28;22.80;99.90
40589;DHT22;26297;49.450;6.640;2022-07-22T12:56:32;22.90;99.90
40589;DHT22;26297;49.450;6.640;2022-07-22T12:59:37;23.00;99.90
40589;DHT22;26297;49.450;6.640;2022-07-22T13:02:40;23.10;99.90
40589;DHT22;26297;49.450;6.640;2022-07-22T13:05:44;23.10;99.90
40589;DHT22;26297;49.450;6.640;2022-07-22T13:08:47;23.10;99.90
40589;DHT22;26297;49.450;6.640;2022-07-22T13:11:50;23.10;99.90
40589;DHT22;26297;49.450;6.640;2022-07-22T13:14:53;23.10;99.90
40589;DHT22;26297;49.450;6.640;2022-07-22T13:17:56;23.20;99.90
40589;DHT22;26297;49.450;6.640;2022-07-22T13:20:59;23.20;99.90
40589;DHT22;26297;49.450;6.640;2022-07-22T13:24:02;23.20;99.90
40589;DHT22;26297;49.450;6.640;2022-07-22T13:27:06;23.20;99.90
40589;DHT22;26297;49.450;6.640;2022-07-22T13:30:09;23.10;99.90
40589;DHT22;26297;49.450;6.640;2022-07-22T13:33:13;23.00;99.90
40589;DHT22;26297;49.450;6.640;2022-07-22T13:36:19;23.00;99.90
40589;DHT22;26297;49.450;6.640;2022-07-22T13:39:22;23.10;99.90
40589;DHT22;26297;49.450;6.640;2022-07-22T13:42:25;23.30;99.90
40589;DHT22;26297;49.450;6.640;2022-07-22T13:45:29;23.30;99.90
40589;DHT22;26297;49.450;6.640;2022-07-22T13:48:32;23.40;99.90
40589;DHT22;26297;49.450;6.640;2022-07-22T13:51:35;23.40;99.90
40589;DHT22;26297;49.450;6.640;2022-07-22T13:54:41;23.40;99.90
40589;DHT22;26297;49.450;6.640;2022-07-22T13:57:45;23.50;99.90
40589;DHT22;26297;49.450;6.640;2022-07-22T14:00:49;23.50;99.90
40589;DHT22;26297;49.450;6.640;2022-07-22T14:03:53;23.40;99.90
40589;DHT22;26297;49.450;6.640;2022-07-22T14:07:05;23.30;99.90
40589;DHT22;26297;49.450;6.640;2022-07-22T14:10:29;23.10;99.90
40589;DHT22;26297;49.450;6.640;2022-07-22T14:13:32;23.00;99.90
40589;DHT22;26297;49.450;6.640;2022-07-22T14:16:36;22.90;99.90
40589;DHT22;26297;49.450;6.640;2022-07-22T14:19:52;22.90;99.90
40589;DHT22;26297;49.450;6.640;2022-07-22T14:22:55;22.80;99.90
40589;DHT22;26297;49.450;6.640;2022-07-22T14:25:59;22.80;99.90
40589;DHT22;26297;49.450;6.640;2022-07-22T14:29:03;22.80;99.90
40589;DHT22;26297;49.450;6.640;2022-07-22T14:32:07;22.80;99.90
40589;DHT22;26297;49.450;6.640;2022-07-22T14:35:10;22.70;99.90
40589;DHT22;26297;49.450;6.640;2022-07-22T14:38:14;22.80;99.90
40589;DHT22;26297;49.450;6.640;2022-07-22T14:41:17;22.80;99.90
40589;DHT22;26297;49.450;6.640;2022-07-22T14:44:20;23.00;99.90
40589;DHT22;26297;49.450;6.640;2022-07-22T14:47:23;23.20;99.90
40589;DHT22;26297;49.450;6.640;2022-07-22T14:50:26;23.30;99.90
40589;DHT22;26297;49.450;6.640;2022-07-22T14:53:29;23.40;99.90
40589;DHT22;26297;49.450;6.640;2022-07-22T14:56:33;23.50;99.90
40589;DHT22;26297;49.450;6.640;2022-07-22T14:59:37;23.50;99.90
40589;DHT22;26297;49.450;6.640;2022-07-22T15:02:43;23.50;99.90
40589;DHT22;26297;49.450;6.640;2022-07-22T15:05:47;23.40;99.90
40589;DHT22;26297;49.450;6.640;2022-07-22T15:08:50;23.50;99.90
40589;DHT22;26297;49.450;6.640;2022-07-22T15:11:53;23.40;99.90
40589;DHT22;26297;49.450;6.640;2022-07-22T15:14:57;23.40;99.90
40589;DHT22;26297;49.450;6.640;2022-07-22T15:18:08;23.30;99.90
40589;DHT22;26297;49.450;6.640;2022-07-22T15:21:11;23.20;99.90
40589;DHT22;26297;49.450;6.640;2022-07-22T15:24:15;23.00;99.90
40589;DHT22;26297;49.450;6.640;2022-07-22T15:27:18;23.00;99.90
40589;DHT22;26297;49.450;6.640;2022-07-22T15:30:22;23.00;99.90
40589;DHT22;26297;49.450;6.640;2022-07-22T15:33:26;23.00;99.90
40589;DHT22;26297;49.450;6.640;2022-07-22T15:36:29;22.90;99.90
40589;DHT22;26297;49.450;6.640;2022-07-22T15:39:32;22.90;99.90
40589;DHT22;26297;49.450;6.640;2022-07-22T15:42:35;22.80;99.90
40589;DHT22;26297;49.450;6.640;2022-07-22T15:45:38;22.90;99.90
40589;DHT22;26297;49.450;6.640;2022-07-22T15:48:42;23.00;99.90
40589;DHT22;26297;49.450;6.640;2022-07-22T15:51:45;23.00;99.90
40589;DHT22;26297;49.450;6.640;2022-07-22T15:54:48;23.10;99.90
40589;DHT22;26297;49.450;6.640;2022-07-22T15:57:51;23.20;99.90
40589;DHT22;26297;49.450;6.640;2022-07-22T16:01:13;23.30;99.90
40589;DHT22;26297;49.450;6.640;2022-07-22T16:04:16;23.40;99.90
40589;DHT22;26297;49.450;6.640;2022-07-22T16:07:19;23.50;99.90
40589;DHT22;26297;49.450;6.640;2022-07-22T16:10:22;23.50;99.90
40589;DHT22;26297;49.450;6.640;2022-07-22T16:13:25;23.50;99.90
40589;DHT22;26297;49.450;6.640;2022-07-22T16:16:29;23.60;99.90
40589;DHT22;26297;49.450;6.640;2022-07-22T16:19:31;23.60;99.90
40589;DHT22;26297;49.450;6.640;2022-07-22T16:22:35;23.40;99.90
40589;DHT22;26297;49.450;6.640;2022-07-22T16:25:39;23.40;99.90
40589;DHT22;26297;49.450;6.640;2022-07-22T16:28:42;23.30;99.90
40589;DHT22;26297;49.450;6.640;2022-07-22T16:31:48;23.30;99.90
40589;DHT22;26297;49.450;6.640;2022-07-22T16:35:02;23.20;99.90
40589;DHT22;26297;49.450;6.640;2022-07-22T16:38:06;23.10;99.90
40589;DHT22;26297;49.450;6.640;2022-07-22T16:41:09;23.00;99.90
40589;DHT22;26297;49.450;6.640;2022-07-22T16:44:12;23.00;99.90
40589;DHT22;26297;49.450;6.640;2022-07-22T16:47:16;22.90;99.90
40589;DHT22;26297;49.450;6.640;2022-07-22T16:50:19;22.90;99.90
40589;DHT22;26297;49.450;6.640;2022-07-22T16:53:26;22.80;99.90
40589;DHT22;26297;49.450;6.640;2022-07-22T16:56:33;22.80;99.90
40589;DHT22;26297;49.450;6.640;2022-07-22T16:59:36;22.70;99.90
40589;DHT22;26297;49.450;6.640;2022-07-22T17:02:40;22.70;99.90
40589;DHT22;26297;49.450;6.640;2022-07-22T17:05:43;22.70;99.90
40589;DHT22;26297;49.450;6.640;2022-07-22T17:08:49;22.60;99.90
40589;DHT22;26297;49.450;6.640;2022-07-22T17:11:55;22.60;99.90
40589;DHT22;26297;49.450;6.640;2022-07-22T17:14:58;22.60;99.90
40589;DHT22;26297;49.450;6.640;2022-07-22T17:18:02;22.60;99.90
40589;DHT22;26297;49.450;6.640;2022-07-22T17:21:06;22.60;99.90
40589;DHT22;26297;49.450;6.640;2022-07-22T17:24:10;22.60;99.90
40589;DHT22;26297;49.450;6.640;2022-07-22T17:27:49;22.60;99.90
40589;DHT22;26297;49.450;6.640;2022-07-22T17:30:52;22.60;99.90
40589;DHT22;26297;49.450;6.640;2022-07-22T17:33:55;22.60;99.90
40589;DHT22;26297;49.450;6.640;2022-07-22T17:37:02;22.60;99.90
40589;DHT22;26297;49.450;6.640;2022-07-22T17:40:09;22.60;99.90
40589;DHT22;26297;49.450;6.640;2022-07-22T17:43:13;22.60;99.90
40589;DHT22;26297;49.450;6.640;2022-07-22T17:46:16;22.60;99.90
40589;DHT22;26297;49.450;6.640;2022-07-22T17:49:20;22.60;99.90
40589;DHT22;26297;49.450;6.640;2022-07-22T17:52:23;22.60;99.90
40589;DHT22;26297;49.450;6.640;2022-07-22T17:55:26;22.60;99.90
40589;DHT22;26297;49.450;6.640;2022-07-22T17:58:30;22.60;99.90
40589;DHT22;26297;49.450;6.640;2022-07-22T18:01:33;22.60;99.90
40589;DHT22;26297;49.450;6.640;2022-07-22T18:04:37;22.60;99.90
40589;DHT22;26297;49.450;6.640;2022-07-22T18:07:40;22.60;99.90
40589;DHT22;26297;49.450;6.640;2022-07-22T18:10:43;22.60;99.90
40589;DHT22;26297;49.450;6.640;2022-07-22T18:14:06;22.60;99.90
40589;DHT22;26297;49.450;6.640;2022-07-22T18:17:09;22.60;99.90
40589;DHT22;26297;49.450;6.640;2022-07-22T18:20:18;22.60;99.90
40589;DHT22;26297;49.450;6.640;2022-07-22T18:23:21;22.70;99.90
40589;DHT22;26297;49.450;6.640;2022-07-22T18:26:25;22.70;99.90
40589;DHT22;26297;49.450;6.640;2022-07-22T18:29:28;22.70;99.90
40589;DHT22;26297;49.450;6.640;2022-07-22T18:32:31;22.70;99.90
40589;DHT22;26297;49.450;6.640;2022-07-22T18:35:35;22.60;99.90
40589;DHT22;26297;49.450;6.640;2022-07-22T18:38:39;22.70;99.90
40589;DHT22;26297;49.450;6.640;2022-07-22T18:41:42;22.60;99.90
40589;DHT22;26297;49.450;6.640;2022-07-22T18:44:48;22.70;99.90
40589;DHT22;26297;49.450;6.640;2022-07-22T18:47:52;22.70;99.90
40589;DHT22;26297;49.450;6.640;2022-07-22T18:50:56;22.70;99.90
40589;DHT22;26297;49.450;6.640;2022-07-22T18:54:00;22.70;99.90
40589;DHT22;26297;49.450;6.640;2022-07-22T18:57:06;22.70;99.90
40589;DHT22;26297;49.450;6.640;2022-07-22T19:00:27;22.70;99.90
40589;DHT22;26297;49.450;6.640;2022-07-22T19:03:31;22.70;99.90
40589;DHT22;26297;49.450;6.640;2022-07-22T19:06:34;22.70;99.90
40589;DHT22;26297;49.450;6.640;2022-07-22T19:09:38;22.80;99.90
40589;DHT22;26297;49.450;6.640;2022-07-22T19:12:41;22.70;99.90
40589;DHT22;26297;49.450;6.640;2022-07-22T19:15:45;22.70;99.90
40589;DHT22;26297;49.450;6.640;2022-07-22T19:18:48;22.70;99.90
40589;DHT22;26297;49.450;6.640;2022-07-22T19:21:52;22.70;99.90
40589;DHT22;26297;49.450;6.640;2022-07-22T19:25:14;22.80;99.90
40589;DHT22;26297;49.450;6.640;2022-07-22T19:28:28;22.70;99.90
40589;DHT22;26297;49.450;6.640;2022-07-22T19:31:41;23.00;99.90
40589;DHT22;26297;49.450;6.640;2022-07-22T19:34:44;22.70;99.90